Time;durP1;ratioP1;P1;durP2;ratioP2;P2;SDS_P1;SDS_P2;PMS_P1;PMS_P2;Temp;Humidity;BMP_temperature;BMP_pressure;BME280_temperature;BME280_humidity;BME280_pressure;Samples;Min_cycle;Max_cycle;Signal;HPM_P1;HPM_P2
2022/07/30 00:09:01;;;;;;;3.58;1.00;;;17.10;99.90;;;;;;20696968;28;20057;-39
2022/07/30 00:19:02;;;;;;;2.97;1.10;;;16.80;99.90;;;;;;20695578;28;20408;-39
2022/07/30 00:29:04;;;;;;;2.65;1.20;;;16.70;99.90;;;;;;20684051;28;20062;-38
2022/07/30 00:39:05;;;;;;;1.70;0.82;;;16.70;99.90;;;;;;20672793;28;20062;-39
2022/07/30 00:49:06;;;;;;;7.95;3.38;;;16.70;99.90;;;;;;20661501;28;20303;-38
2022/07/30 00:59:07;;;;;;;2.30;1.20;;;16.60;99.90;;;;;;20667264;28;20042;-39
2022/07/30 01:09:08;;;;;;;3.88;1.55;;;16.40;99.90;;;;;;20659868;28;20183;-39
2022/07/30 01:29:51;;;;;;;3.35;1.58;;;16.40;99.90;;;;;;20664782;28;20766;-38
2022/07/30 01:39:53;;;;;;;2.28;1.25;;;16.20;99.90;;;;;;20646967;28;20719;-40
2022/07/30 01:49:56;;;;;;;3.38;1.23;;;16.20;99.90;;;;;;20662682;28;20295;-39
2022/07/30 02:00:03;;;;;;;3.30;1.45;;;16.00;99.90;;;;;;20659225;28;20046;-40
2022/07/30 02:10:10;;;;;;;2.42;1.27;;;16.00;99.90;;;;;;20655769;28;20053;-39
2022/07/30 02:20:13;;;;;;;3.70;1.50;;;15.90;99.90;;;;;;20653234;28;20050;-39
2022/07/30 02:30:14;;;;;;;2.53;1.40;;;15.70;99.90;;;;;;20656808;28;20478;-39
2022/07/30 02:40:18;;;;;;;2.60;1.35;;;15.70;99.90;;;;;;20650084;28;20053;-39
2022/07/30 02:50:20;;;;;;;3.53;1.40;;;15.60;99.90;;;;;;20658436;28;20035;-40
2022/07/30 03:00:23;;;;;;;3.13;1.50;;;15.60;99.90;;;;;;20647716;28;20033;-39
2022/07/30 03:10:26;;;;;;;2.60;1.20;;;15.50;99.90;;;;;;20653933;28;21056;-41
2022/07/30 03:20:30;;;;;;;2.65;1.23;;;15.50;99.90;;;;;;20650247;28;20896;-39
2022/07/30 03:30:33;;;;;;;2.78;1.15;;;15.40;99.90;;;;;;20647653;28;20050;-39
2022/07/30 03:40:34;;;;;;;5.03;1.60;;;15.30;99.90;;;;;;20648963;28;20053;-39
2022/07/30 03:50:36;;;;;;;1.90;1.00;;;15.20;99.90;;;;;;20647668;28;20038;-38
2022/07/30 04:00:38;;;;;;;1.52;1.08;;;15.10;99.90;;;;;;20655604;28;20064;-44
2022/07/30 04:10:39;;;;;;;2.30;1.13;;;15.00;99.90;;;;;;20645210;28;20037;-39
2022/07/30 04:20:43;;;;;;;3.83;1.10;;;15.00;99.90;;;;;;20640703;28;20049;-39
2022/07/30 04:30:45;;;;;;;2.95;1.23;;;15.10;99.90;;;;;;20646951;28;20881;-39
2022/07/30 04:40:46;;;;;;;2.17;0.95;;;15.10;99.90;;;;;;20660106;28;20046;-46
2022/07/30 04:50:52;;;;;;;3.63;2.25;;;15.10;99.90;;;;;;20666991;28;20066;-40
2022/07/30 05:00:56;;;;;;;2.67;1.35;;;15.30;99.90;;;;;;20669748;28;20034;-39
2022/07/30 05:10:57;;;;;;;2.40;1.48;;;15.40;99.90;;;;;;20668565;28;20037;-39
2022/07/30 05:20:58;;;;;;;2.60;0.98;;;15.50;99.90;;;;;;20666013;28;20046;-39
2022/07/30 05:30:59;;;;;;;1.80;0.90;;;15.90;99.90;;;;;;20663737;28;20717;-39
2022/07/30 05:41:00;;;;;;;4.88;1.30;;;16.30;99.90;;;;;;20658910;28;20349;-40
2022/07/30 05:51:03;;;;;;;2.58;1.83;;;16.50;99.90;;;;;;20665523;28;20045;-39
2022/07/30 06:01:04;;;;;;;2.63;1.10;;;16.90;99.90;;;;;;20674489;28;20096;-39
2022/07/30 06:11:07;;;;;;;2.95;1.27;;;16.90;99.90;;;;;;20680946;28;20034;-39
2022/07/30 06:21:08;;;;;;;3.33;1.10;;;17.10;99.90;;;;;;20683703;28;20050;-39
2022/07/30 06:31:09;;;;;;;2.50;1.30;;;17.30;99.90;;;;;;20709994;28;20046;-40
2022/07/30 06:41:11;;;;;;;1.45;0.63;;;17.80;99.90;;;;;;20703511;28;20045;-39
2022/07/30 06:51:12;;;;;;;1.63;0.98;;;18.20;99.90;;;;;;20693564;28;20034;-40
2022/07/30 07:01:13;;;;;;;1.52;0.50;;;18.40;99.90;;;;;;20682990;28;20432;-39
2022/07/30 07:11:14;;;;;;;0.75;0.38;;;18.50;99.90;;;;;;20687514;28;20394;-40
2022/07/30 07:21:15;;;;;;;0.82;0.40;;;18.60;99.90;;;;;;20703468;28;20090;-39
2022/07/30 07:31:16;;;;;;;0.80;0.43;;;18.50;99.90;;;;;;20695418;28;20611;-39
2022/07/30 07:41:17;;;;;;;0.90;0.30;;;18.60;99.90;;;;;;20696760;28;20590;-39
2022/07/30 07:51:19;;;;;;;0.57;0.28;;;18.80;99.90;;;;;;20690607;28;20401;-39
2022/07/30 08:01:20;;;;;;;1.30;0.60;;;18.90;99.90;;;;;;20690457;28;20098;-39
2022/07/30 08:11:22;;;;;;;0.80;0.47;;;19.00;99.90;;;;;;20700861;28;20046;-38
2022/07/30 08:21:23;;;;;;;0.80;0.30;;;19.20;99.90;;;;;;20674315;28;20549;-39
2022/07/30 08:31:24;;;;;;;1.15;0.40;;;19.70;99.90;;;;;;20679195;28;20482;-39
2022/07/30 08:41:25;;;;;;;1.33;0.40;;;19.90;99.90;;;;;;20653452;28;20038;-40
2022/07/30 08:51:27;;;;;;;1.40;0.47;;;20.10;99.90;;;;;;20661543;28;20160;-38
2022/07/30 09:01:28;;;;;;;0.68;0.22;;;20.10;99.90;;;;;;20684785;28;20108;-39
2022/07/30 09:11:29;;;;;;;0.57;0.25;;;20.60;99.90;;;;;;20644345;28;20035;-39
2022/07/30 09:21:30;;;;;;;2.03;0.45;;;21.00;99.90;;;;;;20650910;28;20117;-39
2022/07/30 09:31:50;;;;;;;1.25;0.25;;;21.50;99.90;;;;;;20633297;28;20043;-39
2022/07/30 09:41:51;;;;;;;0.60;0.40;;;21.80;99.90;;;;;;20676078;28;20046;-39
2022/07/30 09:51:54;;;;;;;0.47;0.17;;;22.10;99.90;;;;;;20665367;28;20034;-40
2022/07/30 10:01:56;;;;;;;0.52;0.10;;;22.90;99.90;;;;;;20648264;28;20049;-38
2022/07/30 10:12:01;;;;;;;0.50;0.17;;;24.20;99.90;;;;;;20666108;28;20039;-38
2022/07/30 10:22:02;;;;;;;0.60;0.30;;;23.90;99.90;;;;;;20645997;28;20049;-38
2022/07/30 10:32:03;;;;;;;0.35;0.25;;;23.90;99.90;;;;;;20650096;28;20038;-38
2022/07/30 10:42:26;;;;;;;0.93;0.20;;;23.90;99.90;;;;;;20650226;28;20489;-38
2022/07/30 10:52:49;;;;;;;0.82;0.40;;;24.20;99.90;;;;;;20650599;28;20101;-39
2022/07/30 11:03:13;;;;;;;1.13;0.82;;;24.30;99.90;;;;;;20647815;28;20124;-39
2022/07/30 11:13:14;;;;;;;1.75;0.82;;;24.00;99.90;;;;;;20656555;28;20466;-37
2022/07/30 11:23:18;;;;;;;0.82;0.20;;;24.50;99.90;;;;;;20644543;28;20406;-38
2022/07/30 11:33:20;;;;;;;0.52;0.20;;;24.40;99.70;;;;;;20650997;28;20266;-37
2022/07/30 11:43:31;;;;;;;1.00;0.30;;;24.80;99.90;;;;;;20657281;28;20042;-38
2022/07/30 11:53:32;;;;;;;1.25;0.65;;;25.40;99.10;;;;;;20647921;28;20066;-38
2022/07/30 12:03:34;;;;;;;1.27;0.38;;;25.00;99.10;;;;;;20642403;28;20042;-38
2022/07/30 12:13:35;;;;;;;1.00;0.40;;;24.60;99.90;;;;;;20645370;28;20046;-38
2022/07/30 12:23:37;;;;;;;4.35;0.35;;;24.60;99.70;;;;;;20623150;28;20062;-38
2022/07/30 12:33:38;;;;;;;2.75;1.30;;;24.70;99.70;;;;;;20623450;28;20058;-38
2022/07/30 12:43:54;;;;;;;0.93;0.30;;;24.70;99.90;;;;;;20623758;28;20033;-38
2022/07/30 12:53:56;;;;;;;1.10;0.40;;;24.30;99.90;;;;;;20652729;28;20105;-38
2022/07/30 13:04:04;;;;;;;0.70;0.30;;;24.70;99.90;;;;;;20634066;28;20124;-38
2022/07/30 13:14:05;;;;;;;1.08;0.40;;;25.00;99.90;;;;;;20630842;28;20038;-35
2022/07/30 13:24:07;;;;;;;1.02;0.40;;;25.00;99.90;;;;;;20641324;28;20089;-38
2022/07/30 13:34:08;;;;;;;1.10;0.50;;;25.10;99.90;;;;;;20639608;28;20069;-38
2022/07/30 13:44:09;;;;;;;1.00;0.40;;;25.20;99.70;;;;;;20649340;28;20034;-38
2022/07/30 13:54:10;;;;;;;1.38;0.57;;;24.60;99.90;;;;;;20640578;28;20034;-38
2022/07/30 14:04:12;;;;;;;0.82;0.43;;;24.50;99.90;;;;;;20634386;28;20125;-38
2022/07/30 14:14:12;;;;;;;0.88;0.38;;;24.50;99.90;;;;;;20627878;28;20561;-38
2022/07/30 14:24:15;;;;;;;6.40;0.50;;;24.40;99.90;;;;;;20641138;28;20489;-39
2022/07/30 14:34:17;;;;;;;2.78;0.40;;;24.30;99.90;;;;;;20630856;28;20034;-38
2022/07/30 14:44:18;;;;;;;0.57;0.15;;;24.60;99.90;;;;;;20629401;28;20053;-38
2022/07/30 14:54:20;;;;;;;2.25;0.40;;;24.70;99.90;;;;;;20640839;28;20038;-35
2022/07/30 15:04:22;;;;;;;1.38;0.40;;;25.30;99.90;;;;;;20639689;28;20074;-37
2022/07/30 15:14:25;;;;;;;0.65;0.20;;;25.20;99.90;;;;;;20633979;28;20081;-37
2022/07/30 15:24:27;;;;;;;0.88;0.52;;;24.80;99.90;;;;;;20622699;28;20925;-37
2022/07/30 15:34:32;;;;;;;0.98;0.50;;;24.70;99.90;;;;;;20628654;28;20037;-37
2022/07/30 15:44:33;;;;;;;0.57;0.35;;;24.40;99.90;;;;;;20620497;28;20078;-37
2022/07/30 15:54:34;;;;;;;3.97;0.30;;;24.30;99.90;;;;;;20649701;28;20092;-37
2022/07/30 16:04:35;;;;;;;2.92;0.93;;;24.20;99.90;;;;;;20671980;28;20046;-37
2022/07/30 16:14:36;;;;;;;1.38;0.68;;;24.00;99.90;;;;;;20650579;28;20025;-37
2022/07/30 16:24:37;;;;;;;1.15;0.47;;;24.00;99.90;;;;;;20632020;28;20247;-37
2022/07/30 16:34:38;;;;;;;1.27;0.40;;;23.80;99.90;;;;;;20605501;28;20255;-38
2022/07/30 16:44:39;;;;;;;1.00;0.38;;;23.90;99.90;;;;;;20619880;28;20069;-38
2022/07/30 16:54:40;;;;;;;1.02;0.40;;;23.70;99.90;;;;;;20635715;28;20140;-37
2022/07/30 17:04:41;;;;;;;1.48;0.47;;;23.60;99.90;;;;;;20635480;28;20620;-37
2022/07/30 17:14:42;;;;;;;1.23;0.47;;;23.40;99.90;;;;;;20631442;28;20093;-37
2022/07/30 17:24:43;;;;;;;1.17;0.50;;;23.00;99.90;;;;;;20626052;28;21431;-39
2022/07/30 17:34:46;;;;;;;1.35;0.45;;;22.90;99.90;;;;;;20618223;28;20049;-39
2022/07/30 17:44:47;;;;;;;1.10;0.50;;;22.80;99.90;;;;;;20617903;28;20038;-39
2022/07/30 17:54:47;;;;;;;2.00;1.17;;;22.60;99.90;;;;;;20633505;28;20038;-39
2022/07/30 18:04:48;;;;;;;2.75;0.50;;;22.50;99.90;;;;;;20633235;28;20046;-39
2022/07/30 18:14:50;;;;;;;1.08;0.70;;;22.50;99.90;;;;;;20643797;28;20035;-39
2022/07/30 18:24:51;;;;;;;0.50;0.22;;;22.50;99.90;;;;;;20627723;28;20129;-39
2022/07/30 18:34:52;;;;;;;1.38;0.30;;;22.50;99.90;;;;;;20618564;28;20120;-40
2022/07/30 18:44:53;;;;;;;0.88;0.45;;;22.50;99.90;;;;;;20631760;28;20121;-39
2022/07/30 18:54:54;;;;;;;1.27;0.65;;;22.30;99.90;;;;;;20628387;28;21130;-40
2022/07/30 19:04:57;;;;;;;1.35;0.50;;;22.30;99.90;;;;;;20627902;28;20188;-39
2022/07/30 19:14:59;;;;;;;1.50;0.45;;;22.30;99.90;;;;;;20631510;28;20117;-39
2022/07/30 19:25:00;;;;;;;1.95;0.40;;;22.20;99.90;;;;;;20640403;28;20638;-39
2022/07/30 19:35:01;;;;;;;1.40;0.20;;;22.20;99.90;;;;;;20624687;28;20065;-40
2022/07/30 19:45:02;;;;;;;1.02;0.43;;;22.10;99.90;;;;;;20621814;28;20546;-39
2022/07/30 19:55:04;;;;;;;2.60;0.70;;;22.00;99.90;;;;;;20627173;28;20152;-39
2022/07/30 20:05:05;;;;;;;1.35;0.40;;;21.90;99.90;;;;;;20624054;28;20121;-39
2022/07/30 20:15:07;;;;;;;1.73;0.40;;;21.90;99.90;;;;;;20625181;28;20513;-39
2022/07/30 20:25:09;;;;;;;1.05;0.40;;;21.90;99.90;;;;;;20618785;28;20248;-39
2022/07/30 20:35:10;;;;;;;2.08;0.68;;;21.80;99.90;;;;;;20618646;28;20189;-40
2022/07/30 20:45:11;;;;;;;0.85;0.40;;;21.80;99.90;;;;;;20623600;28;20144;-40
2022/07/30 20:55:18;;;;;;;2.25;0.70;;;21.70;99.90;;;;;;20605377;28;20510;-40
2022/07/30 21:05:20;;;;;;;0.93;0.40;;;21.60;99.90;;;;;;20623443;28;20180;-39
2022/07/30 21:15:21;;;;;;;1.05;0.40;;;21.50;99.90;;;;;;20634268;28;20570;-40
2022/07/30 21:25:23;;;;;;;2.40;0.60;;;21.40;99.90;;;;;;20631384;28;20109;-39
2022/07/30 21:35:24;;;;;;;0.88;0.45;;;21.40;99.90;;;;;;20632342;28;21592;-39
2022/07/30 21:45:25;;;;;;;0.93;0.32;;;21.40;99.90;;;;;;20635870;28;20088;-40
2022/07/30 21:55:26;;;;;;;2.10;0.60;;;21.30;99.90;;;;;;20637378;28;20129;-39
2022/07/30 22:05:27;;;;;;;1.20;0.63;;;21.30;99.90;;;;;;20653637;28;20053;-39
2022/07/30 22:15:28;;;;;;;2.38;0.90;;;21.20;99.90;;;;;;20647774;28;20199;-39
2022/07/30 22:25:30;;;;;;;1.70;0.70;;;21.10;99.90;;;;;;20651046;28;20042;-40
2022/07/30 22:35:31;;;;;;;1.27;0.60;;;21.00;99.90;;;;;;20648255;28;20038;-40
2022/07/30 22:45:32;;;;;;;4.55;1.40;;;21.10;99.90;;;;;;20647852;28;20490;-41
2022/07/30 22:55:36;;;;;;;2.35;0.93;;;21.00;99.90;;;;;;20635818;28;20124;-40
2022/07/30 23:05:37;;;;;;;4.93;1.88;;;20.90;99.90;;;;;;20645247;28;20030;-40
2022/07/30 23:15:38;;;;;;;2.85;1.20;;;20.90;99.90;;;;;;20654797;28;20041;-40
2022/07/30 23:25:39;;;;;;;2.83;1.23;;;20.70;99.90;;;;;;20640746;28;20042;-40
2022/07/30 23:35:40;;;;;;;1.60;0.90;;;20.50;99.90;;;;;;20654310;28;20069;-40
2022/07/30 23:45:42;;;;;;;3.15;0.70;;;20.30;99.90;;;;;;20649717;28;20082;-39
2022/07/30 23:55:48;;;;;;;1.13;0.60;;;20.10;99.90;;;;;;20651191;28;20045;-40
